Tiempo atmosférico en la estación meteorológica de Bustillo del Páramo, León (850 m.)



Fecha
DESCASC
Temp. máxima en grados centígrados (hora)
DESCASC
Temp. mínima en grados centígrados (hora)
DESCASC
Temp. media en grados centígrados
DESCASC
Racha de viento máxima en m/sg (hora)
DESCASC
Velocidad máxima media en intervalos de 10 minutos(hora)
DESCASC
Precipitaciones diarias en mm
DESCASC
Precipitaciones de 00:00 a 06:00 en mm
DESCASC
Precipitaciones de 06:00 a 12:00 en mm
DESCASC
Precipitaciones de 12:00 a 18:00 en mm
DESCASC
Precipitaciones de 18:00 a 24:00 en mm
DESCASC
21-02-2021 8.2 (02:00) 3.4 (23:50) 5.8 11.11 (09:10) 6.67 (10:10) 7.6 0 1 5 1.6
20-02-2021 9.6 (13:20) 4.5 (06:50) 7.1 12.5 (13:40) 9.17 (13:40) 10.4 0 0 7.2 3.2
19-02-2021 11.2 (14:20) 6.2 (04:20) 8.7 13.06 (14:20) 8.89 (13:50) 0 0 0 0 0
18-02-2021 11.1 (17:20) 6.8 (00:00) 9 15 (12:50) 11.11 (12:50) 1 0 0 1 0
17-02-2021 11.6 (14:40) 0.3 (00:00) 6 13.06 (23:20) 9.72 (23:30) 0.2 0 0.2 0 0
16-02-2021 11.6 (14:30) 3.6 (00:00) 7.6 13.89 (10:20) 9.72 (11:40) 4 0 0 3.2 0.8
15-02-2021 14.3 (17:20) 2.2 (00:00) 8.3 7.5 (16:20) 5 (17:20) 0 0 0 0 0
14-02-2021 10 (16:20) 0.2 (00:00) 5.1 5.28 (14:20) 3.61 (23:20) 0 0 0 0 0
13-02-2021 12.8 (17:10) 0.6 (00:00) 6.7 9.72 (16:40) 7.5 (16:30) 0 0 0 0 0
12-02-2021 11.9 (16:00) 4.5 (00:00) 8.2 12.5 (14:10) 8.61 (11:50) 6 5.8 0.2 0 0
11-02-2021 11.8 (16:00) 4.1 (00:00) 8 7.78 (18:00) 5.56 (18:00) 3.2 0 0 0 3.2
10-02-2021 9.3 (16:00) 0.3 (00:00) 4.8 11.67 (02:10) 7.78 (12:10) 1.2 1.2 0 0 0
09-02-2021 6 (10:00) 0.8 (00:00) 3.4 14.44 (07:40) 9.17 (17:30) 5.8 0.4 4.6 0.8 0
08-02-2021 7.8 (15:50) 1 (00:00) 4.4 10.56 (16:10) 7.5 (15:20) 1.4 1.4 0 0 0
07-02-2021 4.4 (14:40) -2.5 (-00:0) 1 8.89 (23:50) 6.11 (23:59) 0 0 0 0 0
06-02-2021 7.5 (14:30) 0 (00:00) 3.8 10.56 (03:30) 7.22 (03:10) 8 6.4 1.4 0.2 0
05-02-2021 8.9 (16:40) 4.3 (00:00) 6.6 8.61 (22:50) 5 (22:40) 17 0.8 7.8 0 8.4
04-02-2021 6.8 (13:10) 3.8 (00:00) 5.3 9.72 (02:30) 7.5 (02:30) 3.4 0 0 2.4 1
03-02-2021 12.1 (15:40) 5.2 (00:00) 8.7 13.33 (04:20) 8.89 (04:10) 0.4 0.2 0.2 0 0
02-02-2021 10.6 (15:20) 5 (00:00) 7.8 13.06 (13:10) 9.17 (15:20) 2.8 0 0 1 1.8
01-02-2021 13.6 (13:40) 7.7 (00:00) 10.7 15.83 (01:40) 10.83 (01:50) 0 0 0 0 0
31-01-2021 14.3 (16:20) 4.5 (00:00) 9.4 21.39 (18:30) 15.56 (18:10) 0 0 0 0 0
30-01-2021 9.1 (00:00) 4.2 (00:00) 6.7 20.83 (11:40) 15.56 (11:40) 4 2.8 0 1 0.2
29-01-2021 15.1 (14:40) 5.3 (00:00) 10.2 10.28 (19:40) 7.78 (19:40) 0 0 0 0 0
28-01-2021 15.4 (17:00) 4 (00:00) 9.7 5.28 (19:40) 4.17 (19:50) 0.4 0.2 0.2 0 0
27-01-2021 16.9 (16:00) 5.5 (00:00) 11.2 9.72 (11:50) 5.56 (11:50) 0 0 0 0 0
26-01-2021 12.1 (16:50) 4.9 (00:00) 8.5 4.44 (01:10) 3.33 (01:10) 1.2 0.6 0.4 0 0.2
25-01-2021 9.3 (16:30) 5 (00:00) 7.2 5.28 (08:50) 3.33 (12:30) 6.4 3.2 0.6 2.6 0

Gráficas

Temp. máximas Temp. mínimas Temp. medias Precipitaciones Rachas de viento máximas Velocidades máximas media en intervalos de 10 minutos

Datos horarios

Fecha y hora oficial Temperatura (ºC) Velocidad del viento (km/h) Dirección del viento Racha (km/h) Dirección de racha Precipitación (mm) Presión (hPa) Tendencia (hPa) Humedad (%)
2021-02-23 23:00:00 3 11 Nordeste 13 Nordeste 0 -- -- 79
2021-02-23 22:00:00 3.9 10 Este 13 Este 0 -- -- 75
2021-02-23 21:00:00 4.5 10 Este 13 Este 0 -- -- 74
2021-02-23 20:00:00 6.5 10 Este 15 Este 0 -- -- 69
2021-02-23 19:00:00 9.2 10 Este 22 Este 0 -- -- 63
2021-02-23 18:00:00 11.3 13 Sudeste 25 Sudeste 0 -- -- 53
2021-02-23 17:00:00 11.9 15 Sudeste 24 Sudeste 0 -- -- 46
2021-02-23 16:00:00 11.9 13 Sudeste 25 Sudeste 0 -- -- 47
2021-02-23 15:00:00 10.9 13 Sudeste 27 Sudeste 0 -- -- 56
2021-02-23 14:00:00 10.4 17 Sudeste 28 Sudeste 0 -- -- 59
2021-02-23 13:00:00 8.7 11 Sudeste 22 Este 0 -- -- 70
2021-02-23 12:00:00 7.4 5 Sudeste 18 Este 0 -- -- 71
2021-02-23 11:00:00 5.3 7 Este 15 Este 0 -- -- 75
2021-02-23 10:00:00 3 10 Este 12 Este 0 -- -- 81
2021-02-23 09:00:00 0.1 7 Nordeste 12 Nordeste 0 -- -- 90
2021-02-23 08:00:00 -0.8 6 Nordeste 14 Nordeste 0 -- -- 89
2021-02-23 07:00:00 -0.9 9 Nordeste 11 Nordeste 0 -- -- 88
2021-02-23 06:00:00 -0.8 10 Nordeste 14 Nordeste 0 -- -- 90
2021-02-23 05:00:00 -1.9 6 Nordeste 9 Nordeste 0 -- -- 91
2021-02-23 04:00:00 -1.6 6 Norte 10 Norte 0 -- -- 90
2021-02-23 03:00:00 -0.8 5 Norte 8 Nordeste 0 -- -- 88
2021-02-23 02:00:00 0.2 8 Nordeste 13 Nordeste 0 -- -- 87
2021-02-23 01:00:00 0.7 3 Este 12 Sudeste 0 -- -- 82
2021-02-23 00:00:00 2.3 9 Sudeste 13 Este 0 -- -- 80
2021-02-22 23:00:00 2.5 9 Sudeste 14 Sudeste 0 -- -- 80
2021-02-22 22:00:00 3 8 Sudeste 14 Este 0 -- -- 81
2021-02-22 21:00:00 4 8 Sudeste 15 Sudeste 0 -- -- 79
2021-02-22 20:00:00 5.2 8 Sudeste 14 Sudeste 0 -- -- 71
2021-02-22 19:00:00 7.9 8 Sudeste 13 Sudeste 0 -- -- 55
2021-02-22 18:00:00 10.9 6 Sudeste 17 Sur 0 -- -- 39
2021-02-22 17:00:00 11.4 6 Sudeste 14 Sudoeste 0 -- -- 40
2021-02-22 16:00:00 10.8 5 Sudoeste 26 Sudoeste 0 -- -- 37
2021-02-22 15:00:00 9.5 6 Sudoeste 17 Sudoeste 0 -- -- 37
2021-02-22 14:00:00 9.1 5 Sudoeste 14 Sudoeste 0 -- -- 39
2021-02-22 13:00:00 8.1 3 Nordeste 17 Oeste 0 -- -- 48
2021-02-22 12:00:00 6.4 9 Noroeste 19 Noroeste 0 -- -- 63
2021-02-22 11:00:00 4.9 11 Noroeste 19 Noroeste 0 -- -- 72
2021-02-22 10:00:00 2.7 13 Noroeste 23 Noroeste 0 -- -- 85
2021-02-22 09:00:00 0.8 13 Noroeste 25 Noroeste 0 -- -- 92
2021-02-22 08:00:00 0.4 15 Noroeste 22 Oeste 0 -- -- 93
2021-02-22 07:00:00 0.4 15 Noroeste 22 Noroeste 0 -- -- 93
2021-02-22 06:00:00 0.5 13 Noroeste 23 Oeste 0 -- -- 91
2021-02-22 05:00:00 1 18 Oeste 28 Oeste 0 -- -- 90
2021-02-22 04:00:00 1.5 18 Oeste 28 Oeste 0 -- -- 89
2021-02-22 03:00:00 2.6 21 Oeste 30 Oeste 0 -- -- 88
2021-02-22 02:00:00 3.1 16 Oeste 28 Oeste 0 -- -- 90
2021-02-22 01:00:00 3.2 17 Oeste 26 Oeste 0 -- -- 91
2021-02-22 00:00:00 3.4 15 Noroeste 27 Noroeste 0 -- -- 91
2021-02-21 23:00:00 3.8 15 Noroeste 23 Noroeste 0 -- -- 91
2021-02-21 22:00:00 3.6 7 Noroeste 21 Noroeste 0 -- -- 90
2021-02-21 21:00:00 3.8 8 Noroeste 15 Noroeste 0.2 -- -- 93
2021-02-21 20:00:00 3.8 8 Noroeste 21 Noroeste 1 -- -- 93
2021-02-21 19:00:00 4.2 13 Noroeste 33 Oeste 0.4 -- -- 93
2021-02-21 18:00:00 4.6 21 Noroeste 31 Oeste 0.2 -- -- 93
2021-02-21 17:00:00 4.5 9 Noroeste 22 Oeste 1 -- -- 93
2021-02-21 16:00:00 4.1 14 Noroeste 24 Noroeste 0.6 -- -- 92
2021-02-21 15:00:00 3.7 13 Noroeste 28 Noroeste 0.8 -- -- 92
2021-02-21 14:00:00 3.9 19 Noroeste 30 Noroeste 2 -- -- 90
2021-02-21 13:00:00 7.5 10 Sur 20 Sur 0.4 -- -- 91
2021-02-21 12:00:00 7.8 6 Sur 17 Este 0 -- -- 88
2021-02-21 11:00:00 7.5 11 Sudeste 37 Sudeste 0.6 -- -- 87
2021-02-21 10:00:00 8 23 Sudeste 40 Sudeste 0.2 -- -- 77
2021-02-21 09:00:00 7.7 21 Sudeste 39 Sudeste 0.2 -- -- 78
2021-02-21 08:00:00 7.5 15 Sudeste 25 Sudeste 0 -- -- 75
2021-02-21 07:00:00 7 2 Sudeste 28 Este 0 -- -- 75
2021-02-21 06:00:00 7.1 18 Este 30 Este 0 -- -- 71
2021-02-21 05:00:00 6.8 17 Este 25 Este 0 -- -- 72
2021-02-21 04:00:00 6.7 14 Este 25 Este 0 -- -- 73
2021-02-21 03:00:00 7 15 Este 27 Este 0 -- -- 69
2021-02-21 02:00:00 8.2 17 Sudeste 27 Sudeste 0 -- -- 60
2021-02-21 01:00:00 7.2 13 Este 20 Este 0 -- -- 75
2021-02-21 00:00:00 7.7 12 Este 25 Este 0 -- -- 76
2021-02-20 23:00:00 8.5 17 Sudeste 28 Este 0 -- -- 74
2021-02-20 22:00:00 7.3 9 Este 12 Este 0 -- -- 89
2021-02-20 21:00:00 7.6 3 Sudeste 12 Sur 0.4 -- -- 88
2021-02-20 20:00:00 7.3 2 Este 5 Este 1 -- -- 93
2021-02-20 19:00:00 7.4 0 Calma 20 Sur 1.8 -- -- 93
2021-02-20 18:00:00 7.9 15 Sur 23 Sur 2.2 -- -- 90
2021-02-20 17:00:00 8.2 9 Sur 21 Sur 2.2 -- -- 90
2021-02-20 16:00:00 8.5 10 Sudeste 23 Sudeste 1.6 -- -- 87
2021-02-20 15:00:00 8.4 14 Sudeste 30 Sur 1.2 -- -- 84
2021-02-20 14:00:00 9.2 22 Sur 45 Sur 0 -- -- 71
2021-02-20 13:00:00 9.4 22 Sur 43 Sudeste 0 -- -- 68
2021-02-20 12:00:00 9 19 Sudeste 37 Sudeste 0 -- -- 72
2021-02-20 11:00:00 8.4 19 Sudeste 34 Sur 0 -- -- 74
2021-02-20 10:00:00 7.6 18 Sur 26 Sur 0 -- -- 78
2021-02-20 09:00:00 5.5 12 Sudeste 23 Sudeste 0 -- -- 88
2021-02-20 08:00:00 4.8 15 Sudeste 23 Sudeste 0 -- -- 90
2021-02-20 07:00:00 4.5 11 Sudeste 20 Este 0 -- -- 91
2021-02-20 06:00:00 5.1 16 Este 30 Este 0 -- -- 89
2021-02-20 05:00:00 5.6 19 Sudeste 28 Este 0 -- -- 91
2021-02-20 04:00:00 5.9 18 Sudeste 29 Sudeste 0 -- -- 90
2021-02-20 03:00:00 6.2 17 Sudeste 25 Sudeste 0 -- -- 90
2021-02-20 02:00:00 7.4 17 Sudeste 34 Sur 0 -- -- 85
2021-02-20 01:00:00 7.3 18 Sur 27 Sur 0 -- -- 85
2021-02-20 00:00:00 8.2 17 Sudeste 42 Sur 0 -- -- 81
2021-02-19 23:00:00 8.3 23 Sur 45 Sur 0 -- -- 80
2021-02-19 22:00:00 8.6 29 Sur 42 Sur 0 -- -- 77
2021-02-19 21:00:00 8.7 22 Sur 34 Sur 0 -- -- 72
2021-02-19 20:00:00 8.9 17 Sudeste 32 Sudeste 0 -- -- 71
2021-02-19 19:00:00 9.6 18 Sur 36 Sur 0 -- -- 70
2021-02-19 18:00:00 10.3 26 Sur 37 Sur 0 -- -- 64
2021-02-19 17:00:00 10.5 20 Sur 38 Sur 0 -- -- 65
2021-02-19 16:00:00 10.4 23 Sur 44 Sur 0 -- -- 63
2021-02-19 15:00:00 10.8 31 Sur 47 Sur 0 -- -- 60
2021-02-19 14:00:00 10.6 30 Sur 46 Sur 0 -- -- 61
2021-02-19 13:00:00 10.7 30 Sur 45 Sur 0 -- -- 69
2021-02-19 12:00:00 8.6 17 Sudeste 25 Sudeste 0 -- -- 92
2021-02-19 11:00:00 8.6 15 Sudeste 30 Sur 0 -- -- 93
2021-02-19 10:00:00 8 17 Sudeste 30 Sur 0 -- -- 95
2021-02-19 09:00:00 7.2 17 Sur 29 Sudeste 0 -- -- 97
2021-02-19 08:00:00 6.9 9 Sudeste 21 Sudeste 0 -- -- 96
2021-02-19 07:00:00 6.7 12 Sudeste 28 Sur 0 -- -- 95
2021-02-19 06:00:00 6.3 21 Sudeste 27 Sur 0 -- -- 95
2021-02-19 05:00:00 6.5 15 Sudeste 22 Sudeste 0 -- -- 94
2021-02-19 04:00:00 6.4 14 Sudeste 23 Sudeste 0 -- -- 94
2021-02-19 03:00:00 6.7 15 Sudeste 25 Sur 0 -- -- 93
2021-02-19 02:00:00 7.2 19 Sur 32 Sur 0 -- -- 93
2021-02-19 01:00:00 7 10 Sudeste 28 Sur 0 -- -- 94
2021-02-19 00:00:00 7.3 19 Sudeste 28 Sudeste 0 -- -- 93
2021-02-18 23:00:00 6.9 19 Sudeste 27 Sur 0 -- -- 92
2021-02-18 22:00:00 7.3 16 Sur 24 Sudoeste 0 -- -- 90
2021-02-18 21:00:00 7.5 9 Sur 15 Sur 0 -- -- 88
2021-02-18 20:00:00 8 0 Calma 13 Norte 0 -- -- 85
2021-02-18 19:00:00 8.2 9 Norte 26 Noroeste 0 -- -- 86
2021-02-18 18:00:00 10.4 14 Oeste 37 Sudoeste 0 -- -- 75
2021-02-18 17:00:00 10 8 Sudoeste 39 Sudoeste 0 -- -- 84
2021-02-18 16:00:00 10.8 23 Sudoeste 34 Sudoeste 0.2 -- -- 85
2021-02-18 15:00:00 8.5 6 Noroeste 14 Oeste 0.2 -- -- 89
2021-02-18 14:00:00 8.5 13 Oeste 53 Sur 0.6 -- -- 88
2021-02-18 13:00:00 9.9 37 Sur 54 Sur 0 -- -- 82
2021-02-18 12:00:00 9.5 37 Sur 49 Sur 0 -- -- 84
2021-02-18 11:00:00 8 31 Sudoeste 45 Sur 0 -- -- 88
2021-02-18 10:00:00 7.4 34 Sur 52 Sudoeste 0 -- -- 89
2021-02-18 09:00:00 7.4 31 Sur 43 Sudoeste 0 -- -- 90
2021-02-18 08:00:00 7.6 25 Sur 43 Sur 0 -- -- 90
2021-02-18 07:00:00 7.8 23 Sur 33 Sur 0 -- -- 89
2021-02-18 06:00:00 7.8 19 Sur 25 Sur 0 -- -- 89
2021-02-18 05:00:00 8 14 Sur 27 Sur 0 -- -- 88
2021-02-18 04:00:00 8.4 19 Sur 33 Sur 0 -- -- 88
2021-02-18 03:00:00 8.6 19 Sur 32 Sur 0 -- -- 89
2021-02-18 02:00:00 8.6 18 Sur 37 Sur 0 -- -- 89
2021-02-18 01:00:00 8.6 27 Sur 47 Sur 0 -- -- 90
2021-02-18 00:00:00 8.8 34 Sur 47 Sur 0 -- -- 89
2021-02-17 23:00:00 9.1 31 Sur 42 Sur 0 -- -- 88
2021-02-17 22:00:00 8.5 18 Sudeste 27 Sudeste 0 -- -- 94
2021-02-17 21:00:00 8.9 13 Este 21 Este 0 -- -- 90
2021-02-17 20:00:00 9.1 12 Sur 37 Sur 0 -- -- 89
2021-02-17 19:00:00 9.3 19 Sur 32 Sur 0 -- -- 86
2021-02-17 18:00:00 9.6 19 Sur 35 Sur 0 -- -- 89
2021-02-17 17:00:00 9.6 25 Sur 36 Sur 0 -- -- 89
2021-02-17 16:00:00 10.8 24 Sur 44 Sur 0 -- -- 80
2021-02-17 15:00:00 11.2 32 Sur 43 Sur 0 -- -- 72
2021-02-17 14:00:00 10.9 31 Sur 41 Sur 0 -- -- 72
2021-02-17 13:00:00 9.5 17 Sur 27 Sur 0 -- -- 96
2021-02-17 12:00:00 7.6 15 Sur 23 Sur 0 -- -- 98
2021-02-17 11:00:00 5.4 0 Calma 13 Este 0 -- -- 98
2021-02-17 10:00:00 4.8 9 Este 13 Este 0.2 -- -- 98
2021-02-17 09:00:00 4 5 Este 10 Este 0 -- -- 99
2021-02-17 08:00:00 2.4 2 Nordeste 5 Norte 0 -- -- 98
2021-02-17 07:00:00 1.6 3 Nordeste 9 Nordeste 0 -- -- 98
2021-02-17 06:00:00 1 6 Nordeste 11 Nordeste 0 -- -- 98
2021-02-17 05:00:00 0.7 5 Nordeste 9 Norte 0 -- -- 97
2021-02-17 04:00:00 0.9 6 Nordeste 10 Nordeste 0 -- -- 97
2021-02-17 03:00:00 1.4 2 Nordeste 10 Norte 0 -- -- 96
2021-02-17 02:00:00 1.7 5 Noroeste 10 Noroeste 0 -- -- 95
2021-02-17 01:00:00 2.2 4 Este 9 Norte 0 -- -- 95
2021-02-17 00:00:00 3.6 5 Sudoeste 7 Sur 0 -- -- 93
2021-02-16 23:00:00 4.6 3 Oeste 14 Sur 0 -- -- 93
2021-02-16 22:00:00 5.7 9 Sudoeste 13 Sudoeste 0 -- -- 93
2021-02-16 21:00:00 6.4 7 Sur 10 Sur 0 -- -- 92
2021-02-16 20:00:00 7.5 6 Nordeste 9 Sudeste 0 -- -- 92
2021-02-16 19:00:00 8.8 4 Sudeste 9 Sudeste 0.8 -- -- 87
2021-02-16 18:00:00 9.6 0 Calma 8 Sudoeste 0 -- -- 85
2021-02-16 17:00:00 9.8 6 Oeste 20 Oeste 0.4 -- -- 85
2021-02-16 16:00:00 9.7 15 Oeste 22 Oeste 1.8 -- -- 85
2021-02-16 15:00:00 9.4 25 Sudoeste 41 Sudoeste 1 -- -- 87
2021-02-16 14:00:00 10.4 28 Sur 39 Sur 0 -- -- 80
2021-02-16 13:00:00 9.8 27 Sur 46 Sur 0 -- -- 83
2021-02-16 12:00:00 9.6 33 Sur 48 Sur 0 -- -- 80
2021-02-16 11:00:00 8 30 Sur 50 Sudoeste 0 -- -- 85
2021-02-16 10:00:00 7.7 26 Sur 48 Sudoeste 0 -- -- 83
2021-02-16 09:00:00 7 17 Sur 34 Sudeste 0 -- -- 85
2021-02-16 08:00:00 4.5 5 Sudeste 28 Sudeste 0 -- -- 94
2021-02-16 07:00:00 4.1 21 Sudeste 29 Sudeste 0 -- -- 93
2021-02-16 06:00:00 4.5 10 Sudeste 16 Sudeste 0 -- -- 90
2021-02-16 05:00:00 5 14 Sudeste 20 Sudeste 0 -- -- 89
2021-02-16 04:00:00 4.5 9 Sudeste 17 Sudeste 0 -- -- 92
2021-02-16 03:00:00 5 9 Este 14 Este 0 -- -- 90
2021-02-16 02:00:00 6.2 10 Este 16 Sudeste 0 -- -- 85
2021-02-16 01:00:00 7.3 9 Sudeste 22 Sur 0 -- -- 81
2021-02-16 00:00:00 7.4 7 Sudeste 13 Sudeste 0 -- -- 82
2021-02-15 23:00:00 7.3 10 Sudeste 16 Este 0 -- -- 88
2021-02-15 22:00:00 6.2 6 Nordeste 10 Este 0 -- -- 89
2021-02-15 21:00:00 7.1 6 Este 12 Sudeste 0 -- -- 87
2021-02-15 20:00:00 8.8 9 Este 14 Este 0 -- -- 82
2021-02-15 19:00:00 10.9 8 Sudeste 15 Sudeste 0 -- -- 74
2021-02-15 18:00:00 12.9 13 Sudeste 24 Sudeste 0 -- -- 63
2021-02-15 17:00:00 14.2 17 Sudeste 27 Sudeste 0 -- -- 57
2021-02-15 16:00:00 13.4 15 Sudeste 24 Sudeste 0 -- -- 60
2021-02-15 15:00:00 13.8 13 Sudeste 27 Sudeste 0 -- -- 59
2021-02-15 14:00:00 13.2 10 Sudeste 22 Sudeste 0 -- -- 65
2021-02-15 13:00:00 11.8 10 Sudeste 21 Este 0 -- -- 70
2021-02-15 12:00:00 10.9 10 Este 18 Este 0 -- -- 77
2021-02-15 11:00:00 8.7 10 Este 18 Este 0 -- -- 90
2021-02-15 10:00:00 5.6 11 Este 15 Nordeste 0 -- -- 98
2021-02-15 09:00:00 2.4 5 Norte 11 Este 0 -- -- 97
2021-02-15 08:00:00 2.8 6 Este 11 Este 0 -- -- 96
2021-02-15 07:00:00 2.9 6 Nordeste 13 Nordeste 0 -- -- 96
2021-02-15 06:00:00 3.7 8 Nordeste 19 Este 0 -- -- 95
2021-02-15 05:00:00 4.8 15 Este 19 Este 0 -- -- 97
2021-02-15 04:00:00 3.9 9 Este 14 Este 0 -- -- 96
2021-02-15 03:00:00 3.4 9 Este 11 Nordeste 0 -- -- 96
2021-02-15 02:00:00 4.6 10 Este 12 Nordeste 0 -- -- 95
2021-02-15 01:00:00 5 11 Nordeste 13 Nordeste 0 -- -- 95
2021-02-15 00:00:00 5.4 8 Este 17 Este 0 -- -- 95
2021-02-14 23:00:00 5.3 7 Nordeste 15 Nordeste 0 -- -- 95
2021-02-14 22:00:00 6.2 8 Nordeste 13 Nordeste 0 -- -- 95
2021-02-14 21:00:00 5.6 7 Nordeste 10 Nordeste 0 -- -- 93
2021-02-14 20:00:00 6.6 8 Norte 9 Norte 0 -- -- 90
2021-02-14 19:00:00 8.2 4 Nordeste 13 Nordeste 0 -- -- 89
2021-02-14 18:00:00 9.3 10 Nordeste 16 Este 0 -- -- 86
2021-02-14 17:00:00 9.9 8 Sudeste 18 Este 0 -- -- 83
2021-02-14 16:00:00 9.8 9 Este 18 Este 0 -- -- 85
2021-02-14 15:00:00 7.9 8 Este 19 Este 0 -- -- 95
2021-02-14 14:00:00 7 8 Este 15 Este 0 -- -- 97
2021-02-14 13:00:00 6.2 9 Este 15 Este 0 -- -- 97
2021-02-14 12:00:00 5.6 8 Este 14 Este 0 -- -- 98
2021-02-14 11:00:00 4 6 Este 10 Este 0 -- -- 98
2021-02-14 10:00:00 3.1 5 Este 9 Este 0 -- -- 98
2021-02-14 09:00:00 1.9 0 Calma 4 Sudoeste 0 -- -- 97
2021-02-14 08:00:00 1.1 3 Sudoeste 6 Oeste 0 -- -- 98
2021-02-14 07:00:00 0.7 3 Sudeste 9 Nordeste 0 -- -- 96
2021-02-14 06:00:00 0.9 7 Norte 8 Norte 0 -- -- 97
2021-02-14 05:00:00 0.9 2 Nordeste 6 Norte 0 -- -- 96
2021-02-14 04:00:00 1.4 2 Oeste 9 Sur 0 -- -- 96
2021-02-14 03:00:00 2.2 8 Norte 10 Nordeste 0 -- -- 95
2021-02-14 02:00:00 2.3 8 Norte 10 Norte 0 -- -- 95
2021-02-14 01:00:00 2.8 6 Norte 8 Norte 0 -- -- 94
2021-02-14 00:00:00 3.3 5 Nordeste 10 Nordeste 0 -- -- 93
2021-02-13 23:00:00 5.4 0 Calma 4 Sudeste 0 -- -- 92
2021-02-13 22:00:00 6.2 3 Norte 12 Noroeste 0 -- -- 88
2021-02-13 21:00:00 8.2 5 Noroeste 18 Oeste 0 -- -- 83
2021-02-13 20:00:00 9.2 10 Oeste 20 Oeste 0 -- -- 79
2021-02-13 19:00:00 9.8 16 Oeste 31 Oeste 0 -- -- 76
2021-02-13 18:00:00 11.2 19 Oeste 35 Oeste 0 -- -- 73
2021-02-13 17:00:00 12.7 21 Oeste 35 Oeste 0 -- -- 69
2021-02-13 16:00:00 11.7 16 Sudoeste 29 Sudoeste 0 -- -- 69
2021-02-13 15:00:00 11.1 19 Sudoeste 27 Sudoeste 0 -- -- 72
2021-02-13 14:00:00 11.3 15 Sudoeste 23 Sudoeste 0 -- -- 72
2021-02-13 13:00:00 9.7 13 Sur 28 Noroeste 0 -- -- 73
2021-02-13 08:00:00 -- -- -- -- -- -- -- -- --
2021-02-13 07:00:00 1 4 Noroeste 8 Norte 0 -- -- 96
2021-02-13 06:00:00 0.7 6 Norte 9 Norte 0 -- -- 95
2021-02-13 05:00:00 1.2 6 Noroeste 8 Noroeste 0 -- -- 95
2021-02-13 04:00:00 1.6 3 Noroeste 8 Nordeste 0 -- -- 94
2021-02-13 03:00:00 2.4 2 Nordeste 8 Nordeste 0 -- -- 93
2021-02-13 02:00:00 2.3 6 Norte 9 Norte 0 -- -- 93
2021-02-13 01:00:00 3 6 Norte 7 Norte 0 -- -- 92
2021-02-13 00:00:00 4.6 3 Oeste 12 Oeste 0 -- -- 88
2021-02-12 23:00:00 5 9 Oeste 13 Oeste 0 -- -- 88
2021-02-12 22:00:00 4.5 6 Norte 10 Norte 0 -- -- 87
2021-02-12 21:00:00 6.2 8 Noroeste 15 Oeste 0 -- -- 82
2021-02-12 20:00:00 6.5 8 Oeste 12 Oeste 0 -- -- 82
2021-02-12 19:00:00 8 8 Oeste 22 Oeste 0 -- -- 76
2021-02-12 18:00:00 10.7 18 Oeste 32 Oeste 0 -- -- 63
2021-02-12 17:00:00 11.6 18 Oeste 35 Oeste 0 -- -- 63
2021-02-12 16:00:00 11.9 26 Oeste 42 Oeste 0 -- -- 62
2021-02-12 15:00:00 11.6 29 Oeste 45 Oeste 0 -- -- 66
2021-02-12 14:00:00 11.5 31 Oeste 41 Oeste 0 -- -- 69
2021-02-12 13:00:00 10.2 27 Oeste 41 Oeste 0 -- -- 78
2021-02-12 12:00:00 9.9 31 Oeste 44 Oeste 0 -- -- 77
2021-02-12 11:00:00 9 27 Oeste 41 Oeste 0.2 -- -- 84
2021-02-12 10:00:00 7.4 24 Oeste 33 Oeste 0 -- -- 87
2021-02-12 09:00:00 6.2 16 Oeste 27 Oeste 0 -- -- 90
2021-02-12 08:00:00 6 10 Oeste 16 Oeste 0 -- -- 90
2021-02-12 07:00:00 7.1 15 Oeste 27 Oeste 0 -- -- 89
2021-02-12 06:00:00 7.2 11 Oeste 15 Oeste 0 -- -- 91
2021-02-12 05:00:00 7.7 13 Oeste 25 Oeste 0 -- -- 92
2021-02-12 04:00:00 7.3 5 Sudoeste 9 Sur 0.2 -- -- 96
2021-02-12 03:00:00 8.3 8 Sur 15 Sur 1 -- -- 96
2021-02-12 02:00:00 8.7 9 Oeste 23 Sudoeste 1 -- -- 96
2021-02-12 01:00:00 9.3 16 Sudoeste 26 Sudoeste 3.6 -- -- 97
2021-02-12 00:00:00 9.5 15 Sur 22 Sur 2.6 -- -- 97
2021-02-11 23:00:00 9.5 14 Sur 20 Sur 0.2 -- -- 96
2021-02-11 22:00:00 9.5 12 Sudeste 28 Sur 0 -- -- 96
2021-02-11 21:00:00 9.8 18 Sur 28 Sur 0 -- -- 95
2021-02-11 20:00:00 10 12 Sur 23 Sur 0.2 -- -- 95
2021-02-11 19:00:00 10.2 13 Sur 26 Sur 0.2 -- -- 93
2021-02-11 18:00:00 11 20 Sur 28 Sur 0 -- -- 89
2021-02-11 17:00:00 11.8 18 Sur 27 Sur 0 -- -- 87
2021-02-11 16:00:00 11.8 13 Sur 21 Sur 0 -- -- 87
2021-02-11 15:00:00 10.8 4 Este 9 Este 0 -- -- 83
2021-02-11 14:00:00 9.7 3 Sudeste 8 Este 0 -- -- 83
2021-02-11 13:00:00 7.9 2 Sudeste 8 Este 0 -- -- 89
2021-02-11 12:00:00 7 5 Este 9 Este 0 -- -- 89
2021-02-11 11:00:00 5.9 3 Este 6 Nordeste 0 -- -- 91
2021-02-11 10:00:00 5.2 3 Nordeste 8 Norte 0 -- -- 93
2021-02-11 09:00:00 4.7 4 Nordeste 11 Nordeste 0 -- -- 93
2021-02-11 08:00:00 4.6 6 Nordeste 9 Nordeste 0 -- -- 92
2021-02-11 07:00:00 4.5 6 Nordeste 10 Nordeste 0 -- -- 92
2021-02-11 06:00:00 4.2 5 Este 9 Este 0 -- -- 93
2021-02-11 05:00:00 4.4 4 Nordeste 10 Nordeste 0 -- -- 92
2021-02-11 04:00:00 4.2 5 Nordeste 6 Nordeste 0 -- -- 93
2021-02-11 03:00:00 4.5 4 Sudeste 5 Sudeste 0 -- -- 93
2021-02-11 02:00:00 4.8 0 Calma 2 Oeste 0 -- -- 92
2021-02-11 01:00:00 4.7 0 Calma 7 Noroeste 0 -- -- 91
2021-02-11 00:00:00 4.1 5 Noroeste 7 Noroeste 0 -- -- 90
2021-02-10 23:00:00 4.7 4 Sudeste 7 Sudeste 0 -- -- 87
2021-02-10 22:00:00 4.6 3 Nordeste 5 Este 0 -- -- 86
2021-02-10 21:00:00 4.8 0 Calma 4 Sur 0 -- -- 84
2021-02-10 20:00:00 5.4 0 Calma 5 Noroeste 0 -- -- 80
2021-02-10 19:00:00 6.3 6 Noroeste 15 Oeste 0 -- -- 73
2021-02-10 18:00:00 7.3 9 Noroeste 24 Oeste 0 -- -- 66
2021-02-10 17:00:00 8.4 18 Oeste 31 Oeste 0 -- -- 68
2021-02-10 16:00:00 9.3 22 Oeste 33 Oeste 0 -- -- 66
2021-02-10 15:00:00 8.6 19 Oeste 30 Oeste 0 -- -- 70
2021-02-10 14:00:00 7.7 19 Sudoeste 31 Sudoeste 0 -- -- 70
2021-02-10 13:00:00 7.9 19 Oeste 39 Oeste 0 -- -- 70
2021-02-10 12:00:00 7 23 Oeste 36 Oeste 0 -- -- 72
2021-02-10 11:00:00 4.9 14 Oeste 29 Oeste 0 -- -- 77
2021-02-10 10:00:00 3.2 24 Oeste 35 Oeste 0 -- -- 84
2021-02-10 09:00:00 2 14 Oeste 34 Oeste 0 -- -- 86
2021-02-10 08:00:00 1.9 21 Oeste 36 Oeste 0 -- -- 90
2021-02-10 07:00:00 1.8 15 Oeste 32 Oeste 0 -- -- 90
2021-02-10 06:00:00 1.9 12 Oeste 27 Oeste 0 -- -- 93
2021-02-10 05:00:00 1.1 17 Sudoeste 23 Sudoeste 0 -- -- 96
2021-02-10 04:00:00 0.6 13 Sudoeste 16 Oeste 0 -- -- 95
2021-02-10 03:00:00 0.9 9 Oeste 42 Oeste 1.2 -- -- 95
2021-02-10 02:00:00 3 19 Sudoeste 26 Sudoeste 0 -- -- 95
2021-02-10 01:00:00 2.6 10 Sur 22 Sur 0 -- -- 95
2021-02-10 00:00:00 2.1 8 Sur 13 Sur 0 -- -- 96
2021-02-09 23:00:00 0.9 10 Sur 13 Sur 0 -- -- 96
2021-02-09 22:00:00 0.8 7 Sur 13 Sudeste 0 -- -- 95
2021-02-09 21:00:00 1.1 8 Sudeste 26 Sudoeste 0 -- -- 93
2021-02-09 20:00:00 2.5 17 Sudoeste 37 Sudoeste 0 -- -- 92
2021-02-09 19:00:00 3.7 22 Sur 33 Sur 0 -- -- 92
2021-02-09 18:00:00 4.4 19 Sur 44 Sur 0 -- -- 90
2021-02-09 17:00:00 5.1 26 Sur 40 Sur 0.2 -- -- 87
2021-02-09 16:00:00 5.6 24 Sudoeste 33 Sudoeste 0.4 -- -- 88
2021-02-09 15:00:00 5.7 17 Sur 27 Sur 0 -- -- 85
2021-02-09 14:00:00 4.3 20 Sur 26 Sur 0 -- -- 92
2021-02-09 13:00:00 3.6 20 Sudoeste 41 Sudoeste 0.2 -- -- 90
2021-02-09 12:00:00 3.1 23 Oeste 37 Oeste 1.4 -- -- 92
2021-02-09 11:00:00 3.9 20 Oeste 41 Oeste 3 -- -- 93
2021-02-09 10:00:00 6 28 Sur 39 Sur 0.2 -- -- 94
2021-02-09 09:00:00 5.8 28 Sur 43 Sudoeste 0 -- -- 92
2021-02-09 08:00:00 5.5 24 Sur 52 Sur 0 -- -- 93
2021-02-09 07:00:00 5.3 26 Sur 46 Sur 0 -- -- 94
2021-02-09 06:00:00 4.8 19 Sur 35 Sur 0.2 -- -- 95
2021-02-09 05:00:00 4.3 30 Sur 39 Sur 0 -- -- 95
2021-02-09 04:00:00 3.9 21 Sur 42 Sur 0 -- -- 92
2021-02-09 03:00:00 4.3 29 Sur 40 Sur 0 -- -- 92
2021-02-09 02:00:00 4.5 24 Sur 35 Sur 0.2 -- -- 91
2021-02-09 01:00:00 4.9 20 Sudoeste 27 Sudoeste 0 -- -- 91
2021-02-09 00:00:00 4.9 9 Sudoeste 13 Sudoeste 0 -- -- 92
2021-02-08 23:00:00 4.9 9 Sur 15 Sudoeste 0 -- -- 90
2021-02-08 22:00:00 5.2 8 Sudoeste 15 Sudoeste 0 -- -- 89
2021-02-08 21:00:00 5.5 10 Sudoeste 16 Sudoeste 0 -- -- 87
2021-02-08 20:00:00 5.2 12 Oeste 20 Sudoeste 0 -- -- 84
2021-02-08 19:00:00 5.4 8 Sudoeste 35 Oeste 0 -- -- 81
2021-02-08 18:00:00 6.9 13 Oeste 26 Oeste 0 -- -- 77
2021-02-08 17:00:00 6.7 15 Oeste 38 Oeste 0 -- -- 81
2021-02-08 16:00:00 7.6 25 Oeste 37 Oeste 0 -- -- 75
2021-02-08 15:00:00 7.2 19 Oeste 30 Oeste 0 -- -- 78
2021-02-08 14:00:00 7.1 18 Sudoeste 27 Sudoeste 0 -- -- 85
2021-02-08 13:00:00 6.6 17 Sudoeste 23 Sudoeste 0 -- -- 85
2021-02-08 12:00:00 6.7 15 Sudoeste 26 Sudoeste 0 -- -- 90
2021-02-08 11:00:00 5.1 17 Sudoeste 24 Sudoeste 0 -- -- 98
2021-02-08 10:00:00 3.1 8 Sur 11 Sur 0 -- -- 98
2021-02-08 09:00:00 1.6 5 Sudoeste 9 Sudoeste 0 -- -- 98
2021-02-08 08:00:00 1 9 Sudoeste 11 Sur 0 -- -- 98
2021-02-08 07:00:00 1.2 4 Sur 8 Sudeste 0 -- -- 98
2021-02-08 06:00:00 2.1 2 Sur 5 Noroeste 0 -- -- 97
2021-02-08 05:00:00 2.5 0 Calma 6 Noroeste 0 -- -- 97
2021-02-08 04:00:00 2.6 6 Noroeste 9 Oeste 0.2 -- -- 96
2021-02-08 03:00:00 4 8 Sudoeste 17 Sur 0 -- -- 97
2021-02-08 02:00:00 3.5 9 Sudeste 15 Sur 0 -- -- 97
2021-02-08 01:00:00 3.6 10 Sur 28 Sur 1.2 -- -- 96
2021-02-08 00:00:00 3.6 22 Sur 32 Sur 0 -- -- 95
2021-02-07 23:00:00 3.7 18 Sur 24 Sur 0 -- -- 94
2021-02-07 22:00:00 3.7 17 Sur 26 Sur 0 -- -- 93
2021-02-07 21:00:00 3.8 13 Sur 19 Sur 0 -- -- 92
2021-02-07 20:00:00 3.5 3 Norte 7 Nordeste 0 -- -- 93
2021-02-07 19:00:00 3.6 4 Nordeste 6 Nordeste 0 -- -- 91
2021-02-07 18:00:00 4.1 3 Norte 5 Norte 0 -- -- 87
2021-02-07 17:00:00 4.3 4 Sudoeste 8 Noroeste 0 -- -- 82
2021-02-07 16:00:00 4.3 5 Noroeste 10 Noroeste 0 -- -- 80
2021-02-07 15:00:00 4.3 8 Oeste 14 Sudoeste 0 -- -- 78
2021-02-07 14:00:00 4.2 10 Sudoeste 19 Sudoeste 0 -- -- 77
2021-02-07 13:00:00 3.3 6 Sudoeste 10 Sur 0 -- -- 86
2021-02-07 12:00:00 2.6 7 Sudoeste 12 Sur 0 -- -- 85
2021-02-07 11:00:00 1.9 6 Oeste 15 Oeste 0 -- -- 90
2021-02-07 10:00:00 0.6 9 Noroeste 15 Noroeste 0 -- -- 95
2021-02-07 09:00:00 -0.7 7 Noroeste 13 Noroeste 0 -- -- 95
2021-02-07 08:00:00 -1.6 6 Noroeste 12 Noroeste 0 -- -- 95
2021-02-07 07:00:00 -2.1 6 Noroeste 9 Noroeste 0 -- -- 94
2021-02-07 06:00:00 -2.3 5 Noroeste 9 Noroeste 0 -- -- 94
2021-02-07 05:00:00 -2.1 7 Noroeste 10 Noroeste 0 -- -- 93
2021-02-07 04:00:00 -2 6 Noroeste 11 Noroeste 0 -- -- 93
2021-02-07 03:00:00 -1.9 7 Noroeste 12 Noroeste 0 -- -- 91
2021-02-07 02:00:00 -1.2 9 Noroeste 13 Noroeste 0 -- -- 91
2021-02-07 01:00:00 -0.6 8 Noroeste 13 Noroeste 0 -- -- 90
2021-02-07 00:00:00 0 9 Noroeste 13 Noroeste 0 -- -- 86
2021-02-06 23:00:00 1.2 10 Noroeste 15 Noroeste 0 -- -- 83
2021-02-06 22:00:00 0.7 7 Noroeste 11 Noroeste 0 -- -- 87
2021-02-06 21:00:00 2.5 4 Norte 15 Norte 0 -- -- 81
2021-02-06 20:00:00 2.6 9 Norte 17 Norte 0 -- -- 81
2021-02-06 19:00:00 4.2 12 Norte 24 Noroeste 0 -- -- 75
2021-02-06 18:00:00 6.4 12 Norte 24 Noroeste 0 -- -- 67
2021-02-06 17:00:00 6.8 16 Noroeste 28 Noroeste 0 -- -- 68
2021-02-06 16:00:00 7 16 Noroeste 25 Noroeste 0 -- -- 70
2021-02-06 15:00:00 7.5 15 Noroeste 29 Noroeste 0 -- -- 72
2021-02-06 14:00:00 7.2 16 Noroeste 24 Noroeste 0 -- -- 78
2021-02-06 13:00:00 6.1 7 Noroeste 10 Oeste 0.2 -- -- 88
2021-02-06 12:00:00 5.3 5 Noroeste 10 Norte 0.4 -- -- 91
2021-02-06 11:00:00 4.6 4 Norte 16 Nordeste 0.2 -- -- 92
2021-02-06 10:00:00 4.4 10 Norte 21 Nordeste 0.2 -- -- 89
2021-02-06 09:00:00 4.6 10 Norte 20 Norte 0.2 -- -- 87
2021-02-06 08:00:00 4.4 9 Norte 23 Norte 0 -- -- 89
2021-02-06 07:00:00 4.5 13 Norte 32 Norte 0.4 -- -- 89
2021-02-06 06:00:00 4.8 22 Norte 33 Norte 0.4 -- -- 89
2021-02-06 05:00:00 4.8 12 Norte 28 Norte 0.6 -- -- 92
2021-02-06 04:00:00 4.9 21 Norte 38 Norte 1.2 -- -- 91
2021-02-06 03:00:00 5.1 21 Norte 34 Norte 2.2 -- -- 92
2021-02-06 02:00:00 5.3 18 Norte 28 Norte 1.6 -- -- 93
2021-02-06 01:00:00 5.8 12 Norte 21 Norte 0.4 -- -- 93
2021-02-06 00:00:00 6.3 14 Norte 27 Norte 3.8 -- -- 94
2021-02-05 23:00:00 6.7 12 Norte 31 Norte 3.4 -- -- 92
2021-02-05 22:00:00 6.3 7 Norte 13 Norte 1.2 -- -- 91
2021-02-05 21:00:00 6.6 8 Norte 12 Norte 0 -- -- 91
2021-02-05 20:00:00 7.1 5 Norte 12 Norte 0 -- -- 90
2021-02-05 19:00:00 7.4 8 Norte 13 Norte 0 -- -- 89
2021-02-05 18:00:00 8.2 9 Norte 15 Norte 0 -- -- 88
2021-02-05 17:00:00 8.9 9 Nordeste 17 Nordeste 0 -- -- 89
2021-02-05 16:00:00 8.6 9 Nordeste 15 Nordeste 0 -- -- 91
2021-02-05 15:00:00 8.3 11 Nordeste 22 Nordeste 0 -- -- 94
2021-02-05 14:00:00 7.7 14 Nordeste 23 Nordeste 0 -- -- 96
2021-02-05 13:00:00 6.7 11 Nordeste 23 Nordeste 0 -- -- 97
2021-02-05 12:00:00 5.8 10 Nordeste 17 Nordeste 0.4 -- -- 97
2021-02-05 11:00:00 5.1 3 Norte 8 Noroeste 1.2 -- -- 97
2021-02-05 10:00:00 4.9 4 Norte 10 Norte 0.4 -- -- 97
2021-02-05 09:00:00 4.5 5 Norte 8 Noroeste 3.4 -- -- 97
2021-02-05 08:00:00 4.5 5 Norte 11 Noroeste 2.4 -- -- 97
2021-02-05 07:00:00 4.4 5 Norte 12 Noroeste 0 -- -- 97
2021-02-05 06:00:00 4.3 5 Norte 8 Norte 0.2 -- -- 97
2021-02-05 05:00:00 4.4 4 Norte 6 Noroeste 0 -- -- 97
2021-02-05 04:00:00 4.5 4 Nordeste 9 Nordeste 0.4 -- -- 97
2021-02-05 03:00:00 4.5 3 Norte 6 Norte 0 -- -- 97
2021-02-05 02:00:00 4.7 3 Nordeste 5 Norte 0.2 -- -- 97
2021-02-05 01:00:00 4.7 4 Norte 8 Norte 0 -- -- 97
2021-02-05 00:00:00 4.8 3 Norte 6 Nordeste 0 -- -- 96
2021-02-04 23:00:00 4.7 0 Calma 5 Norte 0 -- -- 96
2021-02-04 22:00:00 4.8 3 Norte 4 Noroeste 0 -- -- 96
2021-02-04 21:00:00 5.1 0 Calma 5 Sudoeste 0.8 -- -- 96
2021-02-04 20:00:00 5.2 3 Sudoeste 4 Sudoeste 0 -- -- 95
2021-02-04 19:00:00 5.2 0 Calma 6 Sudeste 0.2 -- -- 94
2021-02-04 18:00:00 5.4 4 Sudeste 10 Sudeste 1 -- -- 94
2021-02-04 17:00:00 5.7 4 Sudeste 14 Este 0.4 -- -- 91
2021-02-04 16:00:00 6 4 Este 9 Nordeste 0 -- -- 85
2021-02-04 15:00:00 6.2 6 Este 10 Este 1 -- -- 86
2021-02-04 14:00:00 6.8 2 Sudeste 9 Sudeste 0 -- -- 79
2021-02-04 13:00:00 6.7 4 Sudeste 12 Sudeste 0 -- -- 92
2021-02-04 12:00:00 6.2 7 Este 14 Este 0 -- -- 97
2021-02-04 11:00:00 5.8 8 Este 13 Este 0 -- -- 97
2021-02-04 10:00:00 5 7 Nordeste 11 Este 0 -- -- 96
2021-02-04 09:00:00 4 3 Este 5 Norte 0 -- -- 95
2021-02-04 08:00:00 3.9 3 Norte 10 Sur 0 -- -- 94
2021-02-04 07:00:00 4.1 6 Sur 22 Sudeste 0 -- -- 94
2021-02-04 06:00:00 4.7 13 Sur 21 Sur 0 -- -- 93
2021-02-04 05:00:00 5 13 Sudeste 26 Sur 0 -- -- 92
2021-02-04 04:00:00 5 14 Sudeste 32 Sudeste 0 -- -- 92
2021-02-04 03:00:00 5.3 23 Sur 35 Sur 0 -- -- 89
2021-02-04 02:00:00 5.9 21 Sur 32 Sur 0 -- -- 84
2021-02-04 01:00:00 5.4 22 Sur 30 Sur 0 -- -- 89
2021-02-04 00:00:00 5.6 19 Sur 33 Sur 0 -- -- 88
2021-02-03 23:00:00 6 16 Sur 24 Sur 0 -- -- 90
2021-02-03 22:00:00 6.8 10 Sur 21 Sur 0 -- -- 81
2021-02-03 21:00:00 7.3 13 Sudoeste 32 Sur 0 -- -- 78
2021-02-03 20:00:00 7.6 15 Sur 27 Sudoeste 0 -- -- 76
2021-02-03 19:00:00 8.8 19 Sur 32 Sur 0 -- -- 71
2021-02-03 18:00:00 9.6 25 Sudoeste 43 Sudoeste 0 -- -- 68
2021-02-03 17:00:00 10.5 24 Sudoeste 39 Sur 0 -- -- 64
2021-02-03 16:00:00 11.7 22 Sudoeste 45 Sudoeste 0 -- -- 60
2021-02-03 15:00:00 11.8 29 Sudoeste 45 Sudoeste 0 -- -- 60
2021-02-03 14:00:00 10.9 22 Sudoeste 32 Sur 0 -- -- 65
2021-02-03 13:00:00 10 23 Sur 37 Sur 0 -- -- 69
2021-02-03 12:00:00 10.2 27 Sudoeste 40 Sudoeste 0.2 -- -- 68
2021-02-03 11:00:00 8.9 22 Sudoeste 28 Sudoeste 0 -- -- 72
2021-02-03 10:00:00 8 4 Sudeste 9 Sudeste 0 -- -- 82
2021-02-03 09:00:00 5.2 4 Nordeste 11 Sur 0 -- -- 89
2021-02-03 08:00:00 6.4 11 Sur 17 Sur 0 -- -- 91
2021-02-03 07:00:00 7.5 8 Oeste 24 Sur 0 -- -- 94
2021-02-03 06:00:00 8.1 16 Sur 36 Sur 0 -- -- 95
2021-02-03 05:00:00 8.4 21 Sur 48 Sur 0 -- -- 95
2021-02-03 04:00:00 8.6 32 Sur 43 Sur 0 -- -- 94
2021-02-03 03:00:00 8.8 30 Sur 44 Sur 0.2 -- -- 94
2021-02-03 02:00:00 8.5 25 Sur 37 Sudoeste 0 -- -- 96
2021-02-03 01:00:00 8.4 23 Sur 40 Sur 0 -- -- 96
2021-02-03 00:00:00 8.4 25 Sur 37 Sur 0.2 -- -- 96
2021-02-02 23:00:00 8.4 22 Sur 36 Sur 0 -- -- 96
2021-02-02 22:00:00 8.3 15 Sur 26 Sur 0.6 -- -- 96
2021-02-02 21:00:00 8.3 15 Sur 37 Sur 0 -- -- 95
2021-02-02 20:00:00 8.6 27 Sur 44 Sur 0 -- -- 94
2021-02-02 19:00:00 8.5 30 Sur 43 Sur 1 -- -- 94
2021-02-02 18:00:00 9.1 28 Sur 41 Sur 0 -- -- 90
2021-02-02 17:00:00 9.2 21 Sur 45 Sur 0 -- -- 91
2021-02-02 16:00:00 10 28 Sur 45 Sur 0 -- -- 86
2021-02-02 15:00:00 10.2 27 Sur 39 Sur 0 -- -- 89
2021-02-02 14:00:00 9.5 26 Sur 47 Sudoeste 1 -- -- 92
2021-02-02 13:00:00 9.6 29 Sudoeste 43 Sur 0 -- -- 87
2021-02-02 12:00:00 9.7 22 Sur 35 Sur 0 -- -- 88
2021-02-02 11:00:00 9.1 24 Sur 32 Sur 0 -- -- 91
2021-02-02 10:00:00 8.2 13 Sudoeste 27 Sur 0 -- -- 96
2021-02-02 09:00:00 7.2 14 Sur 20 Sur 0 -- -- 97
2021-02-02 08:00:00 5.7 6 Sur 12 Sudeste 0 -- -- 97
2021-02-02 07:00:00 5.7 10 Sudeste 14 Sur 0 -- -- 96
2021-02-02 06:00:00 5.1 8 Sudeste 11 Sur 0 -- -- 95
2021-02-02 05:00:00 6.6 7 Sur 13 Sur 0 -- -- 94
2021-02-02 04:00:00 8 5 Sur 11 Sur 0 -- -- 95
2021-02-02 03:00:00 7.9 9 Sur 17 Sur 0 -- -- 95
2021-02-02 02:00:00 8.4 13 Sur 19 Sur 0 -- -- 94
2021-02-02 01:00:00 8.5 10 Sudoeste 24 Sudoeste 0 -- -- 92
2021-02-02 00:00:00 8.8 16 Sudoeste 27 Sur 0 -- -- 92
2021-02-01 23:00:00 8.7 17 Sudoeste 30 Sudoeste 0 -- -- 92
2021-02-01 22:00:00 8.6 17 Sudoeste 23 Sur 0 -- -- 90
2021-02-01 21:00:00 9.1 15 Sur 21 Sur 0 -- -- 87
2021-02-01 20:00:00 10 15 Sudoeste 24 Oeste 0 -- -- 81
2021-02-01 19:00:00 11 16 Oeste 28 Oeste 0 -- -- 74
2021-02-01 18:00:00 11.6 11 Noroeste 27 Oeste 0 -- -- 69
2021-02-01 17:00:00 11.8 20 Oeste 42 Oeste 0 -- -- 70
2021-02-01 16:00:00 12.9 35 Oeste 49 Oeste 0 -- -- 65
2021-02-01 15:00:00 12.9 32 Oeste 49 Oeste 0 -- -- 62
2021-02-01 14:00:00 13.4 30 Oeste 42 Noroeste 0 -- -- 64
2021-02-01 13:00:00 12.7 23 Oeste 49 Oeste 0 -- -- 67
2021-02-01 12:00:00 11.7 26 Oeste 42 Oeste 0 -- -- 71
2021-02-01 11:00:00 9.7 24 Oeste 35 Oeste 0 -- -- 82
2021-02-01 10:00:00 8.5 22 Oeste 44 Oeste 0 -- -- 84
2021-02-01 09:00:00 7.9 34 Oeste 48 Oeste 0 -- -- 85
2021-02-01 08:00:00 8 15 Oeste 33 Oeste 0 -- -- 83
2021-02-01 07:00:00 7.9 22 Oeste 37 Oeste 0 -- -- 79
2021-02-01 06:00:00 8.2 24 Oeste 42 Oeste 0 -- -- 75
2021-02-01 05:00:00 8.5 26 Oeste 53 Oeste 0 -- -- 73
2021-02-01 04:00:00 8.5 31 Oeste 55 Oeste 0 -- -- 73
2021-02-01 03:00:00 8.4 36 Oeste 55 Oeste 0 -- -- 73
2021-02-01 02:00:00 8.4 35 Oeste 57 Oeste 0 -- -- 74
2021-02-01 01:00:00 8.5 38 Oeste 57 Oeste 0 -- -- 75
2021-02-01 00:00:00 8.4 31 Oeste 59 Oeste 0 -- -- 74
2021-01-31 23:00:00 8.9 37 Oeste 60 Sudoeste 0 -- -- 73
2021-01-31 22:00:00 9.7 36 Oeste 60 Oeste 0 -- -- 72
2021-01-31 21:00:00 9.8 35 Oeste 64 Oeste 0 -- -- 77
2021-01-31 20:00:00 10.6 41 Oeste 68 Oeste 0 -- -- 71
2021-01-31 19:00:00 11 49 Oeste 77 Oeste 0 -- -- 68
2021-01-31 18:00:00 12.5 53 Oeste 76 Oeste 0 -- -- 61
2021-01-31 17:00:00 13.8 46 Oeste 73 Oeste 0 -- -- 59
2021-01-31 16:00:00 13.6 34 Oeste 57 Oeste 0 -- -- 64
2021-01-31 15:00:00 13.5 22 Oeste 46 Oeste 0 -- -- 61
2021-01-31 14:00:00 14 28 Oeste 49 Oeste 0 -- -- 64
2021-01-31 13:00:00 13.7 23 Oeste 46 Oeste 0 -- -- 71
2021-01-31 12:00:00 11.8 13 Oeste 32 Oeste 0 -- -- 79
2021-01-31 11:00:00 10.7 13 Oeste 19 Noroeste 0 -- -- 80
2021-01-31 10:00:00 8.5 13 Noroeste 29 Noroeste 0 -- -- 86
2021-01-31 09:00:00 6.8 11 Oeste 22 Oeste 0 -- -- 88
2021-01-31 08:00:00 6.2 9 Oeste 31 Oeste 0 -- -- 87
2021-01-31 07:00:00 5.1 12 Oeste 32 Oeste 0 -- -- 90
2021-01-31 06:00:00 4.8 21 Oeste 44 Noroeste 0 -- -- 88
2021-01-31 05:00:00 4.9 27 Noroeste 51 Oeste 0 -- -- 84
2021-01-31 04:00:00 5.2 36 Oeste 62 Oeste 0 -- -- 81
2021-01-31 03:00:00 5.2 26 Oeste 39 Oeste 0 -- -- 83
2021-01-31 02:00:00 5.1 23 Oeste 39 Oeste 0 -- -- 83
2021-01-31 01:00:00 5.4 28 Oeste 43 Oeste 0 -- -- 81
2021-01-31 00:00:00 5.1 17 Oeste 49 Oeste 0 -- -- 85
2021-01-30 23:00:00 4.9 34 Oeste 68 Oeste 0 -- -- 83
2021-01-30 22:00:00 4.4 32 Oeste 64 Oeste 0 -- -- 85
2021-01-30 21:00:00 4.2 33 Oeste 57 Oeste 0 -- -- 85
2021-01-30 20:00:00 4.3 32 Oeste 66 Oeste 0.2 -- -- 84
2021-01-30 19:00:00 4.9 35 Oeste 52 Oeste 0 -- -- 83
2021-01-30 18:00:00 5.6 39 Oeste 60 Sudoeste 0 -- -- 78
2021-01-30 17:00:00 6.5 28 Oeste 49 Oeste 0 -- -- 81
2021-01-30 16:00:00 6.7 39 Oeste 62 Oeste 0.2 -- -- 81
2021-01-30 15:00:00 6.8 25 Oeste 44 Oeste 0.6 -- -- 84
2021-01-30 14:00:00 6 21 Oeste 39 Oeste 0.2 -- -- 85
2021-01-30 13:00:00 5.9 28 Oeste 55 Oeste 0 -- -- 82
2021-01-30 12:00:00 6.9 43 Oeste 75 Oeste 0 -- -- 72
2021-01-30 11:00:00 7.3 33 Oeste 48 Oeste 0 -- -- 69
2021-01-30 10:00:00 6.5 12 Sudoeste 23 Sudoeste 0 -- -- 75
2021-01-30 09:00:00 5.8 26 Oeste 49 Oeste 0 -- -- 78
2021-01-30 08:00:00 6.1 12 Sudoeste 34 Oeste 0 -- -- 80
2021-01-30 07:00:00 6 19 Sudoeste 50 Sudoeste 0 -- -- 80
2021-01-30 06:00:00 6.8 33 Sudoeste 54 Sudoeste 0 -- -- 83
2021-01-30 05:00:00 6.4 11 Sudoeste 28 Sudoeste 0 -- -- 88
2021-01-30 04:00:00 7 12 Sudoeste 19 Sudoeste 0 -- -- 87
2021-01-30 03:00:00 7.4 10 Oeste 45 Oeste 0.2 -- -- 85
2021-01-30 02:00:00 8.2 34 Oeste 54 Oeste 2.6 -- -- 91
2021-01-30 01:00:00 8.8 24 Sur 33 Sur 0 -- -- 93
2021-01-30 00:00:00 9.1 27 Sur 37 Sur 0 -- -- 87
2021-01-29 23:00:00 9.2 8 Sudoeste 18 Sur 0 -- -- 87
2021-01-29 22:00:00 9.5 15 Sur 33 Sur 0 -- -- 89
2021-01-29 21:00:00 9.7 13 Sur 31 Sur 0 -- -- 90
2021-01-29 20:00:00 10.3 26 Sur 37 Sur 0 -- -- 89
2021-01-29 19:00:00 11.2 21 Sudoeste 31 Sudoeste 0 -- -- 83
2021-01-29 18:00:00 12.9 16 Sur 28 Sudoeste 0 -- -- 76
2021-01-29 17:00:00 13.8 16 Sur 28 Sur 0 -- -- 75
2021-01-29 16:00:00 14.2 20 Sudoeste 27 Sudoeste 0 -- -- 73
2021-01-29 15:00:00 14.9 15 Sur 23 Sur 0 -- -- 72
2021-01-29 14:00:00 14.2 18 Sudoeste 25 Sudoeste 0 -- -- 76
2021-01-29 13:00:00 12.7 14 Sur 22 Sur 0 -- -- 81
2021-01-29 12:00:00 12.1 14 Sur 20 Sur 0 -- -- 90
2021-01-29 11:00:00 9.3 10 Sudoeste 15 Sudoeste 0 -- -- 97
2021-01-29 10:00:00 7.7 3 Sur 10 Sudeste 0 -- -- 97
2021-01-29 09:00:00 6.9 4 Sur 15 Sur 0 -- -- 97
2021-01-29 08:00:00 7 12 Sur 16 Sur 0 -- -- 96
2021-01-29 07:00:00 7.5 9 Sur 15 Sur 0 -- -- 96
2021-01-29 06:00:00 7.7 5 Sur 8 Sur 0 -- -- 96
2021-01-29 05:00:00 8 3 Sur 13 Sur 0 -- -- 97
2021-01-29 04:00:00 7.7 9 Sur 18 Sudeste 0 -- -- 97
2021-01-29 03:00:00 5.7 6 Este 10 Sudeste 0 -- -- 96
2021-01-29 02:00:00 5.6 3 Sur 8 Sudeste 0 -- -- 95
2021-01-29 01:00:00 6.7 5 Nordeste 14 Noroeste 0 -- -- 95
2021-01-29 00:00:00 7.2 7 Oeste 14 Noroeste 0 -- -- 95
2021-01-28 23:00:00 7.5 11 Sudeste 14 Sudeste 0 -- -- 95
2021-01-28 22:00:00 9 9 Sudoeste 14 Sur 0 -- -- 93
2021-01-28 21:00:00 10 10 Sur 15 Sur 0 -- -- 91
2021-01-28 20:00:00 10.6 8 Sur 19 Sur 0 -- -- 89
2021-01-28 19:00:00 12.1 8 Sur 11 Sur 0 -- -- 85
2021-01-28 18:00:00 14.3 3 Sur 14 Sur 0 -- -- 80
2021-01-28 17:00:00 15.4 7 Sur 15 Sur 0 -- -- 77
2021-01-28 16:00:00 14.2 2 Este 7 Este 0 -- -- 88
2021-01-28 15:00:00 12.5 3 Este 8 Este 0 -- -- 96
2021-01-28 14:00:00 11.7 3 Este 9 Sudeste 0 -- -- 99
2021-01-28 13:00:00 9.6 5 Este 13 Sudeste 0 -- -- 99
2021-01-28 12:00:00 8.4 5 Este 10 Este 0 -- -- 99
2021-01-28 11:00:00 7.7 6 Nordeste 9 Nordeste 0 -- -- 99
2021-01-28 10:00:00 6.7 2 Noroeste 5 Noroeste 0 -- -- 99
2021-01-28 09:00:00 6.5 3 Noroeste 7 Norte 0.2 -- -- 98
2021-01-28 08:00:00 6.5 5 Norte 7 Norte 0 -- -- 98
2021-01-28 07:00:00 6.7 3 Nordeste 7 Nordeste 0 -- -- 98
2021-01-28 06:00:00 6.6 4 Norte 7 Nordeste 0 -- -- 98
2021-01-28 05:00:00 6.1 4 Nordeste 9 Nordeste 0 -- -- 98
2021-01-28 04:00:00 5.5 4 Nordeste 8 Este 0.2 -- -- 98
2021-01-28 03:00:00 4.4 5 Nordeste 7 Nordeste 0 -- -- 98
2021-01-28 02:00:00 4.2 6 Nordeste 7 Este 0 -- -- 97
2021-01-28 01:00:00 4.8 5 Este 8 Este 0 -- -- 97
2021-01-28 00:00:00 5.5 3 Este 6 Nordeste 0 -- -- 96
2021-01-27 23:00:00 6.5 2 Sudeste 6 Este 0 -- -- 94
2021-01-27 22:00:00 8 6 Sudoeste 12 Sur 0 -- -- 93
2021-01-27 21:00:00 9.4 6 Noroeste 8 Noroeste 0 -- -- 89
2021-01-27 20:00:00 10.7 6 Sudoeste 8 Sur 0 -- -- 87
2021-01-27 19:00:00 12.6 5 Oeste 8 Oeste 0 -- -- 78
2021-01-27 18:00:00 15.2 3 Sudoeste 18 Oeste 0 -- -- 72
2021-01-27 17:00:00 15.1 5 Sudoeste 12 Sur 0 -- -- 77
2021-01-27 16:00:00 16.9 6 Sur 15 Sudeste 0 -- -- 68
2021-01-27 15:00:00 15.8 8 Sudoeste 15 Sudoeste 0 -- -- 72
2021-01-27 14:00:00 15 2 Norte 18 Noroeste 0 -- -- 75
2021-01-27 13:00:00 13.4 13 Oeste 24 Oeste 0 -- -- 83
2021-01-27 12:00:00 13.1 14 Noroeste 35 Oeste 0 -- -- 88
2021-01-27 11:00:00 11.7 10 Norte 18 Noroeste 0 -- -- 94
2021-01-27 10:00:00 9.8 8 Noroeste 13 Oeste 0 -- -- 96
2021-01-27 09:00:00 8.7 6 Oeste 20 Oeste 0 -- -- 96
2021-01-27 08:00:00 8.8 10 Noroeste 22 Noroeste 0 -- -- 97
2021-01-27 07:00:00 9.4 6 Norte 23 Oeste 0 -- -- 96
2021-01-27 06:00:00 9.7 15 Oeste 22 Oeste 0 -- -- 96
2021-01-27 05:00:00 9.8 9 Oeste 18 Oeste 0 -- -- 96
2021-01-27 04:00:00 9.5 8 Oeste 24 Noroeste 0 -- -- 97
2021-01-27 03:00:00 9.1 15 Oeste 19 Oeste 0 -- -- 98
2021-01-27 02:00:00 9 14 Oeste 20 Oeste 0 -- -- 98
2021-01-27 01:00:00 7.1 5 Sur 10 Sudoeste 0 -- -- 97
2021-01-27 00:00:00 8 7 Oeste 9 Sudoeste 0.2 -- -- 98
2021-01-26 23:00:00 8.8 4 Noroeste 7 Norte 0 -- -- 97
2021-01-26 22:00:00 8.6 0 Calma 5 Noroeste 0 -- -- 96
2021-01-26 21:00:00 9 0 Calma 2 Sudoeste 0 -- -- 96
2021-01-26 20:00:00 9.5 0 Calma 6 Sur 0 -- -- 95
2021-01-26 19:00:00 10.2 5 Sur 9 Sudeste 0 -- -- 94
2021-01-26 18:00:00 11.5 4 Sudeste 9 Sur 0 -- -- 91
2021-01-26 17:00:00 12.1 8 Sur 14 Sur 0 -- -- 89
2021-01-26 16:00:00 11.4 8 Sudoeste 11 Sur 0 -- -- 91
2021-01-26 15:00:00 9.5 3 Sudeste 8 Sur 0 -- -- 94
2021-01-26 14:00:00 8.6 0 Calma 6 Este 0 -- -- 96
2021-01-26 13:00:00 7.7 2 Nordeste 5 Noroeste 0 -- -- 97
2021-01-26 12:00:00 6.8 2 Este 4 Este 0 -- -- 98
2021-01-26 11:00:00 6.1 0 Calma 4 Norte 0 -- -- 98
2021-01-26 10:00:00 5.5 0 Calma 4 Oeste 0 -- -- 98
2021-01-26 09:00:00 5.1 0 Calma 3 Norte 0 -- -- 98
2021-01-26 08:00:00 5 3 Norte 5 Norte 0.2 -- -- 98
2021-01-26 07:00:00 5.4 0 Calma 5 Nordeste 0.2 -- -- 98
2021-01-26 06:00:00 5.3 3 Nordeste 5 Nordeste 0 -- -- 98
2021-01-26 05:00:00 5.2 3 Norte 9 Nordeste 0 -- -- 98
2021-01-26 04:00:00 5 6 Norte 12 Nordeste 0 -- -- 98
2021-01-26 03:00:00 4.9 4 Nordeste 10 Nordeste 0.4 -- -- 97
2021-01-26 02:00:00 5.1 6 Nordeste 16 Nordeste 0.2 -- -- 97
2021-01-26 01:00:00 5 9 Nordeste 15 Nordeste 0 -- -- 97
2021-01-26 00:00:00 5.7 6 Nordeste 10 Nordeste 0 -- -- 97
2021-01-25 23:00:00 5.4 7 Norte 11 Norte 0 -- -- 97
2021-01-25 22:00:00 6.1 2 Sur 6 Oeste 0 -- -- 96
2021-01-25 21:00:00 6.7 2 Noroeste 9 Oeste 0 -- -- 96
2021-01-25 20:00:00 7.9 6 Sudoeste 11 Oeste 0 -- -- 96
2021-01-25 19:00:00 8.3 0 Calma 6 Nordeste 0 -- -- 95
2021-01-25 18:00:00 8.8 3 Nordeste 11 Sudoeste 0 -- -- 95
2021-01-25 17:00:00 9.3 7 Sudoeste 9 Sudoeste 0 -- -- 93
2021-01-25 16:00:00 8.9 3 Sudeste 12 Este 0 -- -- 95
2021-01-25 15:00:00 8.3 10 Nordeste 13 Nordeste 0.6 -- -- 96
2021-01-25 14:00:00 7.5 8 Nordeste 16 Nordeste 1.4 -- -- 97
2021-01-25 13:00:00 6.9 9 Nordeste 17 Nordeste 0.6 -- -- 98
2021-01-25 12:00:00 6.3 10 Nordeste 17 Nordeste 0.2 -- -- 98
2021-01-25 11:00:00 5.7 8 Nordeste 17 Nordeste 0.4 -- -- 98
2021-01-25 10:00:00 5.4 12 Nordeste 17 Nordeste 0 -- -- 98
2021-01-25 09:00:00 5 9 Nordeste 19 Nordeste 0 -- -- 98
2021-01-25 08:00:00 5.1 4 Nordeste 9 Nordeste 0 -- -- 97
2021-01-25 07:00:00 5.3 5 Nordeste 8 Nordeste 0 -- -- 97
2021-01-25 06:00:00 5.3 3 Nordeste 9 Sudeste 0.2 -- -- 97
2021-01-25 05:00:00 5.3 5 Sudeste 9 Sur 0.2 -- -- 97
2021-01-25 04:00:00 5.2 7 Sur 12 Sur 1.2 -- -- 96
2021-01-25 03:00:00 5.2 6 Sur 12 Sur 0.8 -- -- 96
2021-01-25 02:00:00 5.2 9 Sur 13 Sudoeste 0.6 -- -- 95
2021-01-25 01:00:00 5.1 8 Sur 10 Sur 0.2 -- -- 93
2021-01-25 00:00:00 5.2 8 Sudoeste 12 Sudoeste 0 -- -- 90